createdAt,value
2022-11-05T00:00:31.865Z,1.30
2022-11-05T00:03:19.229Z,1.40
2022-11-05T00:06:07.127Z,1.60
2022-11-05T00:08:52.947Z,1.20
2022-11-05T00:11:41.412Z,1.47
2022-11-05T00:14:27.193Z,1.60
2022-11-05T00:16:55.598Z,1.53
2022-11-05T00:19:25.257Z,1.70
2022-11-05T00:22:10.903Z,1.30
2022-11-05T00:24:56.432Z,1.40
2022-11-05T00:27:24.936Z,1.80
2022-11-05T00:29:53.322Z,1.80
2022-11-05T00:32:21.500Z,2.00
2022-11-05T00:34:50.952Z,2.30
2022-11-05T00:37:19.379Z,2.70
2022-11-05T00:39:47.634Z,2.43
2022-11-05T00:42:34.020Z,3.70
2022-11-05T00:45:02.635Z,3.90
2022-11-05T00:47:49.011Z,4.60
2022-11-05T00:50:22.113Z,4.17
2022-11-05T00:52:58.761Z,4.80
2022-11-05T00:55:34.738Z,4.30
2022-11-05T00:58:04.131Z,4.73
2022-11-05T01:00:34.083Z,5.23
2022-11-05T01:03:03.864Z,4.77
2022-11-05T01:05:41.705Z,5.50
2022-11-05T01:08:12.847Z,5.20
2022-11-05T01:10:42.391Z,5.20
2022-11-05T01:13:13.130Z,5.07
2022-11-05T01:15:42.182Z,4.97
2022-11-05T01:18:10.925Z,5.07
2022-11-05T01:20:40.452Z,5.23
2022-11-05T01:23:13.315Z,5.03
2022-11-05T01:25:42.290Z,4.80
2022-11-05T01:28:11.387Z,4.50
2022-11-05T01:30:39.943Z,4.90
2022-11-05T01:33:09.077Z,4.83
2022-11-05T01:35:37.408Z,5.07
2022-11-05T01:38:07.100Z,5.17
2022-11-05T01:40:35.277Z,5.10
2022-11-05T01:43:03.626Z,4.93
2022-11-05T01:45:36.604Z,5.00
2022-11-05T01:48:10.080Z,5.90
2022-11-05T01:50:43.518Z,4.97
2022-11-05T01:53:21.663Z,5.37
2022-11-05T01:55:55.088Z,5.57
2022-11-05T01:58:26.511Z,5.63
2022-11-05T02:00:57.659Z,6.33
2022-11-05T02:03:27.179Z,5.73
2022-11-05T02:05:58.039Z,5.70
2022-11-05T02:08:37.634Z,5.90
2022-11-05T02:11:06.472Z,5.50
2022-11-05T02:13:37.273Z,5.73
2022-11-05T02:16:13.870Z,5.97
2022-11-05T02:18:54.207Z,5.43
2022-11-05T02:21:50.623Z,6.03
2022-11-05T02:24:51.876Z,5.73
2022-11-05T02:27:32.286Z,5.90
2022-11-05T02:30:34.550Z,4.73
2022-11-05T02:33:15.386Z,4.00
2022-11-05T02:36:09.835Z,4.10
2022-11-05T02:38:42.303Z,2.63
2022-11-05T02:41:19.549Z,2.80
2022-11-05T02:43:57.055Z,3.30
2022-11-05T02:46:36.730Z,2.90
2022-11-05T02:49:13.285Z,3.17
2022-11-05T02:51:48.402Z,3.40
2022-11-05T02:54:20.910Z,4.00
2022-11-05T02:56:53.040Z,3.90
2022-11-05T02:59:21.452Z,4.77
2022-11-05T03:01:52.385Z,4.90
2022-11-05T03:04:23.631Z,4.40
2022-11-05T03:07:23.735Z,5.60
2022-11-05T03:10:10.498Z,4.97
2022-11-05T03:12:48.527Z,5.97
2022-11-05T03:15:26.918Z,6.37
2022-11-05T03:18:04.955Z,6.67
2022-11-05T03:20:38.585Z,6.67
2022-11-05T03:23:16.340Z,6.73
2022-11-05T03:25:48.592Z,7.30
2022-11-05T03:28:20.919Z,7.87
2022-11-05T03:30:51.072Z,7.87
2022-11-05T03:33:25.249Z,7.60
2022-11-05T03:35:55.792Z,7.77
2022-11-05T03:38:28.620Z,8.63
2022-11-05T03:40:58.756Z,7.97
2022-11-05T03:43:31.685Z,7.50
2022-11-05T03:46:04.208Z,7.77
2022-11-05T03:48:36.988Z,7.80
2022-11-05T03:51:11.999Z,8.40
2022-11-05T03:53:45.250Z,7.80
2022-11-05T03:56:19.233Z,7.40
2022-11-05T03:58:48.537Z,7.67
2022-11-05T04:01:17.311Z,7.80
2022-11-05T04:03:47.267Z,7.67
2022-11-05T04:06:33.228Z,7.53
2022-11-05T04:09:18.820Z,7.87
2022-11-05T04:12:04.689Z,8.10
2022-11-05T04:14:33.224Z,8.60
2022-11-05T04:17:06.683Z,8.57
2022-11-05T04:19:54.763Z,8.23
2022-11-05T04:22:40.774Z,8.77
2022-11-05T04:25:09.506Z,9.00
2022-11-05T04:27:38.012Z,8.90
2022-11-05T04:30:18.570Z,8.53
2022-11-05T04:33:01.556Z,8.77
2022-11-05T04:35:32.571Z,9.40
2022-11-05T04:38:01.142Z,9.30
2022-11-05T04:40:29.856Z,8.53
2022-11-05T04:42:58.957Z,9.60
2022-11-05T04:45:28.738Z,8.93
2022-11-05T04:47:57.029Z,9.20
2022-11-05T04:50:25.427Z,9.67
2022-11-05T04:52:55.196Z,9.53
2022-11-05T04:55:23.512Z,10.50
2022-11-05T04:57:52.941Z,10.20
2022-11-05T05:00:22.747Z,10.10
2022-11-05T05:02:51.640Z,10.23
2022-11-05T05:05:21.256Z,10.37
2022-11-05T05:07:49.561Z,9.80
2022-11-05T05:10:19.089Z,10.23
2022-11-05T05:12:48.475Z,10.00
2022-11-05T05:15:16.975Z,10.20
2022-11-05T05:17:45.250Z,9.93
2022-11-05T05:20:31.059Z,9.50
2022-11-05T05:22:59.713Z,9.80
2022-11-05T05:25:29.296Z,10.47
2022-11-05T05:27:58.691Z,10.17
2022-11-05T05:30:26.942Z,9.77
2022-11-05T05:32:55.501Z,10.70
2022-11-05T05:35:23.943Z,10.00
2022-11-05T05:37:56.736Z,10.07
2022-11-05T05:40:25.135Z,10.73
2022-11-05T05:42:56.566Z,10.20
2022-11-05T05:45:24.795Z,10.87
2022-11-05T05:47:52.983Z,10.63
2022-11-05T05:50:21.578Z,10.47
2022-11-05T05:52:49.781Z,10.00
2022-11-05T05:55:18.247Z,10.70
2022-11-05T05:57:46.652Z,10.70
2022-11-05T06:00:16.748Z,10.10
2022-11-05T06:02:45.422Z,9.80
2022-11-05T06:05:13.761Z,10.37
2022-11-05T06:07:41.916Z,10.10
2022-11-05T06:10:10.686Z,9.93
2022-11-05T06:12:39.106Z,10.37
2022-11-05T06:15:07.962Z,10.10
2022-11-05T06:17:37.532Z,10.73
2022-11-05T06:20:08.593Z,9.73
2022-11-05T06:22:36.791Z,9.77
2022-11-05T06:25:05.507Z,9.43
2022-11-05T06:27:34.061Z,10.40
2022-11-05T06:30:02.448Z,10.00
2022-11-05T06:32:31.212Z,10.30
2022-11-05T06:35:00.914Z,11.10
2022-11-05T06:37:29.139Z,10.50
2022-11-05T06:39:57.499Z,10.00
2022-11-05T06:42:25.723Z,10.37
2022-11-05T06:44:54.710Z,10.17
2022-11-05T06:47:23.096Z,9.87
2022-11-05T06:49:51.399Z,10.70
2022-11-05T06:52:21.388Z,11.20
2022-11-05T06:54:49.870Z,10.07
2022-11-05T06:57:18.035Z,10.33
2022-11-05T06:59:46.626Z,10.10
2022-11-05T07:02:15.607Z,9.40
2022-11-05T07:04:44.104Z,9.57
2022-11-05T07:07:12.526Z,9.67
2022-11-05T07:09:43.280Z,9.57
2022-11-05T07:12:11.686Z,9.53
2022-11-05T07:14:39.964Z,9.20
2022-11-05T07:17:08.272Z,8.73
2022-11-05T07:19:36.555Z,8.83
2022-11-05T07:22:04.893Z,8.60
2022-11-05T07:24:33.484Z,9.27
2022-11-05T07:27:02.991Z,8.57
2022-11-05T07:29:31.262Z,8.97
2022-11-05T07:31:59.527Z,9.57
2022-11-05T07:34:28.213Z,9.00
2022-11-05T07:36:56.690Z,9.93
2022-11-05T07:39:24.953Z,10.07
2022-11-05T07:41:54.858Z,11.00
2022-11-05T07:44:24.768Z,9.57
2022-11-05T07:46:53.189Z,9.43
2022-11-05T07:49:21.638Z,10.30
2022-11-05T07:51:49.841Z,9.63
2022-11-05T07:54:18.136Z,9.13
2022-11-05T07:56:48.363Z,8.13
2022-11-05T07:59:16.529Z,8.40
2022-11-05T08:01:46.155Z,8.50
2022-11-05T08:04:16.175Z,8.27
2022-11-05T08:06:44.525Z,8.50
2022-11-05T08:09:15.035Z,8.80
2022-11-05T08:11:43.240Z,8.17
2022-11-05T08:14:11.619Z,7.90
2022-11-05T08:16:39.877Z,7.57
2022-11-05T08:19:09.365Z,8.10
2022-11-05T08:21:37.699Z,7.80
2022-11-05T08:24:06.409Z,8.43
2022-11-05T08:26:34.677Z,8.53
2022-11-05T08:29:02.913Z,8.87
2022-11-05T08:31:32.042Z,9.13
2022-11-05T08:34:02.580Z,9.33
2022-11-05T08:36:32.392Z,9.40
2022-11-05T08:39:00.713Z,9.20
2022-11-05T08:41:29.055Z,9.60
2022-11-05T08:43:57.653Z,9.20
2022-11-05T08:46:26.074Z,9.83
2022-11-05T08:48:54.511Z,10.60
2022-11-05T08:51:22.920Z,9.07
2022-11-05T08:53:52.570Z,9.87
2022-11-05T08:56:20.977Z,8.13
2022-11-05T08:58:49.274Z,9.10
2022-11-05T09:01:17.897Z,8.07
2022-11-05T09:03:46.190Z,8.80
2022-11-05T09:06:14.643Z,8.90
2022-11-05T09:08:43.063Z,8.47
2022-11-05T09:11:12.715Z,8.60
2022-11-05T09:13:40.991Z,7.87
2022-11-05T09:16:18.686Z,8.37
2022-11-05T09:18:47.106Z,8.03
2022-11-05T09:21:15.392Z,8.27
2022-11-05T09:23:44.063Z,7.90
2022-11-05T09:26:15.539Z,8.50
2022-11-05T09:28:44.312Z,8.40
2022-11-05T09:31:13.136Z,8.50
2022-11-05T09:33:42.411Z,7.70
2022-11-05T09:36:10.912Z,8.50
2022-11-05T09:38:39.328Z,8.47
2022-11-05T09:41:12.903Z,9.17
2022-11-05T09:43:46.731Z,9.03
2022-11-05T09:46:19.336Z,9.97
2022-11-05T09:48:51.387Z,9.70
2022-11-05T09:51:23.849Z,9.90
2022-11-05T09:53:53.557Z,8.90
2022-11-05T09:56:25.156Z,7.07
2022-11-05T09:58:59.649Z,6.17
2022-11-05T10:01:31.644Z,6.73
2022-11-05T10:04:03.019Z,5.80
2022-11-05T10:06:31.649Z,7.10
2022-11-05T10:09:05.268Z,7.53
2022-11-05T10:11:38.984Z,7.63
2022-11-05T10:14:17.245Z,8.00
2022-11-05T10:16:49.731Z,8.33
2022-11-05T10:19:23.963Z,8.57
2022-11-05T10:22:06.055Z,8.10
2022-11-05T10:24:35.222Z,9.03
2022-11-05T10:27:03.918Z,9.27
2022-11-05T10:29:35.456Z,9.50
2022-11-05T10:32:07.262Z,8.90
2022-11-05T10:34:37.960Z,7.90
2022-11-05T10:37:06.441Z,8.47
2022-11-05T10:39:35.120Z,7.73
2022-11-05T10:42:27.844Z,7.10
2022-11-05T10:45:05.004Z,5.97
2022-11-05T10:48:05.301Z,5.97
2022-11-05T10:50:33.935Z,6.93
2022-11-05T10:53:07.871Z,7.10
2022-11-05T10:55:38.730Z,7.83
2022-11-05T10:58:12.341Z,6.53
2022-11-05T11:00:43.408Z,7.77
2022-11-05T11:03:34.499Z,7.23
2022-11-05T11:06:04.334Z,6.73
2022-11-05T11:08:36.102Z,5.70
2022-11-05T11:11:06.752Z,6.67
2022-11-05T11:13:52.321Z,6.10
2022-11-05T11:16:24.567Z,6.13
2022-11-05T11:18:55.319Z,5.73
2022-11-05T11:21:24.297Z,6.23
2022-11-05T11:23:57.025Z,6.20
2022-11-05T11:26:27.367Z,5.90
2022-11-05T11:28:59.898Z,5.37
2022-11-05T11:31:31.703Z,5.23
2022-11-05T11:34:05.382Z,5.83
2022-11-05T11:36:37.015Z,7.37
2022-11-05T11:39:07.248Z,7.23
2022-11-05T11:41:38.957Z,7.17
2022-11-05T11:44:12.542Z,7.50
2022-11-05T11:46:42.724Z,7.60
2022-11-05T11:49:31.954Z,6.70
2022-11-05T11:52:04.379Z,6.23
2022-11-05T11:54:34.754Z,6.37
2022-11-05T11:57:03.293Z,5.50
2022-11-05T12:00:01.756Z,6.23
2022-11-05T12:02:48.433Z,5.93
2022-11-05T12:05:30.814Z,5.90
2022-11-05T12:08:07.672Z,6.53
2022-11-05T12:10:46.061Z,6.00
2022-11-05T12:14:04.262Z,6.27
2022-11-05T12:17:12.839Z,6.63
2022-11-05T12:20:01.336Z,5.27
2022-11-05T12:22:41.935Z,5.93
2022-11-05T12:25:19.625Z,8.57
2022-11-05T12:28:02.782Z,5.90
2022-11-05T12:30:37.506Z,5.90
2022-11-05T12:33:22.446Z,4.85
2022-11-05T12:36:04.374Z,5.22
2022-11-05T12:38:49.401Z,6.10
2022-11-05T12:41:25.885Z,5.90
2022-11-05T12:44:17.222Z,5.70
2022-11-05T12:46:53.599Z,5.30
2022-11-05T12:49:45.230Z,5.60
2022-11-05T12:52:54.338Z,5.07
2022-11-05T12:55:25.696Z,5.47
2022-11-05T12:57:56.045Z,5.73
2022-11-05T13:00:25.586Z,5.67
2022-11-05T13:03:00.642Z,5.63
2022-11-05T13:05:35.242Z,5.73
2022-11-05T13:08:10.411Z,4.97
2022-11-05T13:10:42.098Z,4.87
2022-11-05T13:13:17.619Z,4.43
2022-11-05T13:15:51.661Z,4.77
2022-11-05T13:18:25.024Z,4.60
2022-11-05T13:20:54.926Z,4.60
2022-11-05T13:23:31.388Z,5.00
2022-11-05T13:26:04.368Z,5.07
2022-11-05T13:28:39.688Z,5.47
2022-11-05T13:31:15.039Z,4.33
2022-11-05T13:33:45.387Z,4.43
2022-11-05T13:36:35.765Z,4.03
2022-11-05T13:39:13.368Z,3.25
2022-11-05T13:41:54.996Z,3.67
2022-11-05T13:44:53.996Z,3.92
2022-11-05T13:47:50.354Z,4.40
2022-11-05T13:50:49.830Z,4.63
2022-11-05T13:53:51.181Z,4.63
2022-11-05T13:56:34.435Z,4.90
2022-11-05T13:59:25.682Z,5.57
2022-11-05T14:01:57.972Z,5.65
2022-11-05T14:04:33.983Z,4.90
2022-11-05T14:07:11.022Z,4.87
2022-11-05T14:09:40.498Z,4.63
2022-11-05T14:12:22.427Z,4.40
2022-11-05T14:14:58.885Z,4.63
2022-11-05T14:17:34.013Z,4.30
2022-11-05T14:20:26.722Z,4.17
2022-11-05T14:22:55.303Z,4.27
2022-11-05T14:25:54.149Z,4.03
2022-11-05T14:28:45.231Z,4.20
2022-11-05T14:31:54.463Z,4.17
2022-11-05T14:34:25.108Z,3.20
2022-11-05T14:37:31.105Z,3.40
2022-11-05T14:40:20.200Z,3.57
2022-11-05T14:42:52.977Z,4.40
2022-11-05T14:45:31.158Z,4.07
2022-11-05T14:48:01.285Z,4.10
2022-11-05T14:50:37.682Z,3.60
2022-11-05T14:53:25.133Z,3.90
2022-11-05T14:56:01.387Z,3.47
2022-11-05T14:58:32.446Z,3.57
2022-11-05T15:01:04.111Z,2.95
2022-11-05T15:04:01.029Z,3.20
2022-11-05T15:06:36.011Z,3.30
2022-11-05T15:09:16.896Z,3.10
2022-11-05T15:11:53.502Z,3.47
2022-11-05T15:14:28.138Z,3.17
2022-11-05T15:17:02.804Z,2.93
2022-11-05T15:19:33.510Z,3.65
2022-11-05T15:22:05.522Z,3.33
2022-11-05T15:24:36.160Z,3.53
2022-11-05T15:27:09.976Z,3.93
2022-11-05T15:29:38.381Z,3.30
2022-11-05T15:32:17.382Z,2.77
2022-11-05T15:34:53.008Z,3.95
2022-11-05T15:37:26.451Z,3.80
2022-11-05T15:39:55.712Z,4.00
2022-11-05T15:42:26.151Z,2.90
2022-11-05T15:44:56.336Z,3.10
2022-11-05T15:47:28.447Z,3.53
2022-11-05T15:49:58.285Z,3.63
2022-11-05T15:52:33.468Z,3.00
2022-11-05T15:55:10.491Z,3.28
2022-11-05T15:57:40.448Z,2.85
2022-11-05T16:00:17.527Z,3.15
2022-11-05T16:02:54.033Z,3.13
2022-11-05T16:05:22.813Z,3.30
2022-11-05T16:07:51.428Z,3.70
2022-11-05T16:10:21.638Z,3.60
2022-11-05T16:12:50.505Z,3.40
2022-11-05T16:15:22.347Z,2.90
2022-11-05T16:17:55.319Z,3.35
2022-11-05T16:20:30.011Z,3.30
2022-11-05T16:22:59.522Z,3.80
2022-11-05T16:25:47.455Z,3.47
2022-11-05T16:28:23.259Z,4.00
2022-11-05T16:30:56.865Z,4.07
2022-11-05T16:33:28.327Z,3.83
2022-11-05T16:35:56.604Z,4.37
2022-11-05T16:38:25.392Z,4.40
2022-11-05T16:40:53.774Z,3.70
2022-11-05T16:43:23.980Z,4.27
2022-11-05T16:45:55.167Z,3.80
2022-11-05T16:48:23.397Z,3.83
2022-11-05T16:50:53.494Z,4.13
2022-11-05T16:53:22.152Z,4.47
2022-11-05T16:55:50.851Z,5.00
2022-11-05T16:58:21.759Z,4.30
2022-11-05T17:00:51.211Z,4.53
2022-11-05T17:03:19.660Z,4.93
2022-11-05T17:05:48.347Z,4.17
2022-11-05T17:08:17.745Z,4.53
2022-11-05T17:10:46.110Z,3.70
2022-11-05T17:13:16.582Z,4.00
2022-11-05T17:15:46.496Z,3.97
2022-11-05T17:18:18.499Z,4.17
2022-11-05T17:20:48.724Z,4.30
2022-11-05T17:23:20.336Z,4.00
2022-11-05T17:25:50.829Z,4.40
2022-11-05T17:28:20.179Z,4.10
2022-11-05T17:30:52.656Z,4.53
2022-11-05T17:33:22.667Z,4.00
2022-11-05T17:35:51.315Z,4.00
2022-11-05T17:38:21.768Z,3.50
2022-11-05T17:40:50.097Z,3.43
2022-11-05T17:43:18.661Z,4.03
2022-11-05T17:45:48.840Z,3.63
2022-11-05T17:48:17.490Z,3.63
2022-11-05T17:50:48.154Z,4.37
2022-11-05T17:53:17.679Z,4.00
2022-11-05T17:55:48.062Z,4.10
2022-11-05T17:58:16.810Z,3.60
2022-11-05T18:00:46.565Z,3.93
2022-11-05T18:03:15.480Z,3.93
2022-11-05T18:05:44.059Z,4.03
2022-11-05T18:08:12.703Z,4.20
2022-11-05T18:10:41.961Z,3.23
2022-11-05T18:13:12.387Z,4.10
2022-11-05T18:15:41.258Z,3.00
2022-11-05T18:18:10.397Z,4.17
2022-11-05T18:20:38.620Z,4.27
2022-11-05T18:23:07.039Z,4.23
2022-11-05T18:25:35.319Z,4.00
2022-11-05T18:28:03.936Z,3.70
2022-11-05T18:30:33.516Z,4.47
2022-11-05T18:33:01.908Z,4.53
2022-11-05T18:35:30.348Z,3.80
2022-11-05T18:37:58.715Z,4.10
2022-11-05T18:40:27.681Z,4.53
2022-11-05T18:42:55.977Z,4.33
2022-11-05T18:45:29.427Z,3.70
2022-11-05T18:48:00.606Z,3.50
2022-11-05T18:50:29.088Z,11.45
2022-11-05T18:52:57.586Z,8.07
2022-11-05T18:55:25.998Z,5.93
2022-11-05T18:57:54.439Z,5.57
2022-11-05T19:00:22.956Z,5.43
2022-11-05T19:02:51.399Z,5.23
2022-11-05T19:05:28.922Z,4.10
2022-11-05T19:07:58.120Z,4.70
2022-11-05T19:10:26.933Z,4.60
2022-11-05T19:12:55.385Z,4.10
2022-11-05T19:15:23.701Z,4.90
2022-11-05T19:17:52.114Z,5.00
2022-11-05T19:20:21.624Z,5.60
2022-11-05T19:22:50.053Z,5.13
2022-11-05T19:25:18.491Z,5.70
2022-11-05T19:27:47.002Z,4.70
2022-11-05T19:30:15.419Z,4.68
2022-11-05T19:32:44.112Z,4.03
2022-11-05T19:35:12.514Z,4.00
2022-11-05T19:37:42.108Z,4.60
2022-11-05T19:40:11.552Z,4.47
2022-11-05T19:42:39.923Z,3.58
2022-11-05T19:45:38.277Z,5.03
2022-11-05T19:47:57.406Z,3.95
2022-11-05T19:50:25.796Z,4.03
2022-11-05T19:52:55.345Z,3.38
2022-11-05T19:55:23.708Z,3.78
2022-11-05T19:57:52.168Z,4.95
2022-11-05T20:00:20.569Z,3.47
2022-11-05T20:02:49.188Z,4.13
2022-11-05T20:05:18.345Z,3.65
2022-11-05T20:07:52.287Z,3.30
2022-11-05T20:10:22.981Z,3.33
2022-11-05T20:12:51.634Z,3.75
2022-11-05T20:15:20.187Z,3.53
2022-11-05T20:17:52.313Z,3.35
2022-11-05T20:20:21.149Z,3.45
2022-11-05T20:22:49.572Z,3.67
2022-11-05T20:25:17.942Z,3.55
2022-11-05T20:27:47.621Z,2.72
2022-11-05T20:30:15.897Z,3.33
2022-11-05T20:32:44.108Z,3.35
2022-11-05T20:35:12.852Z,3.90
2022-11-05T20:37:41.231Z,3.45
2022-11-05T20:40:10.392Z,3.88
2022-11-05T20:42:38.921Z,3.35
2022-11-05T20:45:09.677Z,3.17
2022-11-05T20:47:38.554Z,3.30
2022-11-05T20:50:08.002Z,3.83
2022-11-05T20:52:36.271Z,3.47
2022-11-05T20:55:08.936Z,3.13
2022-11-05T20:57:37.514Z,3.50
2022-11-05T21:00:08.838Z,3.53
2022-11-05T21:02:38.927Z,4.03
2022-11-05T21:05:08.436Z,3.25
2022-11-05T21:07:36.740Z,3.97
2022-11-05T21:10:05.446Z,3.63
2022-11-05T21:12:34.068Z,2.95
2022-11-05T21:15:02.398Z,3.45
2022-11-05T21:17:31.889Z,3.40
2022-11-05T21:20:00.178Z,3.42
2022-11-05T21:22:28.540Z,3.60
2022-11-05T21:24:57.167Z,3.90
2022-11-05T21:27:25.580Z,3.35
2022-11-05T21:29:53.962Z,3.42
2022-11-05T21:32:22.267Z,3.03
2022-11-05T21:34:52.073Z,3.38
2022-11-05T21:37:20.467Z,3.50
2022-11-05T21:39:48.823Z,3.15
2022-11-05T21:42:17.117Z,3.35
2022-11-05T21:44:45.441Z,3.33
2022-11-05T21:47:14.536Z,3.38
2022-11-05T21:49:42.948Z,3.40
2022-11-05T21:52:30.898Z,3.33
2022-11-05T21:55:16.379Z,3.28
2022-11-05T21:58:02.135Z,3.67
2022-11-05T22:00:31.091Z,3.20
2022-11-05T22:03:00.506Z,3.38
2022-11-05T22:05:29.203Z,3.10
2022-11-05T22:07:58.698Z,3.92
2022-11-05T22:10:26.925Z,3.23
2022-11-05T22:12:55.830Z,2.75
2022-11-05T22:15:24.011Z,3.78
2022-11-05T22:17:52.481Z,3.55
2022-11-05T22:20:20.760Z,2.92
2022-11-05T22:22:49.071Z,3.60
2022-11-05T22:25:18.507Z,3.00
2022-11-05T22:27:46.778Z,3.33
2022-11-05T22:30:15.397Z,3.13
2022-11-05T22:32:43.532Z,3.42
2022-11-05T22:35:12.075Z,3.28
2022-11-05T22:37:40.506Z,3.22
2022-11-05T22:40:09.645Z,3.22
2022-11-05T22:42:39.731Z,3.10
2022-11-05T22:45:08.580Z,3.83
2022-11-05T22:47:36.976Z,3.25
2022-11-05T22:50:06.001Z,3.67
2022-11-05T22:52:34.463Z,2.97
2022-11-05T22:55:05.290Z,2.80
2022-11-05T22:57:33.674Z,3.30
2022-11-05T23:00:04.670Z,3.83
2022-11-05T23:02:33.097Z,3.70
2022-11-05T23:05:01.446Z,3.67
2022-11-05T23:07:47.399Z,3.67
2022-11-05T23:10:32.942Z,3.50
2022-11-05T23:13:01.249Z,3.75
2022-11-05T23:15:48.246Z,3.70
2022-11-05T23:18:34.053Z,3.92
2022-11-05T23:21:23.067Z,4.18
2022-11-05T23:24:06.964Z,4.20
2022-11-05T23:26:51.259Z,4.43
2022-11-05T23:29:20.178Z,3.60
2022-11-05T23:32:07.525Z,3.65
2022-11-05T23:34:35.914Z,3.80
2022-11-05T23:37:22.307Z,3.97
2022-11-05T23:39:51.329Z,3.83
2022-11-05T23:42:37.022Z,4.28
2022-11-05T23:45:23.173Z,3.80
2022-11-05T23:48:10.659Z,3.83
2022-11-05T23:50:40.235Z,3.97
2022-11-05T23:53:09.498Z,4.20
2022-11-05T23:55:38.028Z,4.03
2022-11-05T23:58:06.207Z,3.83
